Time;durP1;ratioP1;P1;durP2;ratioP2;P2;SDS_P1;SDS_P2;PMS_P1;PMS_P2;Temp;Humidity;BMP_temperature;BMP_pressure;BME280_temperature;BME280_humidity;BME280_pressure;Samples;Min_cycle;Max_cycle;Signal;HPM_P1;HPM_P2
2022/04/19 00:00:19;;;;;;;8.75;6.85;;;9.70;99.90;;;;;;5063769;28;20514;-87
2022/04/19 00:02:44;;;;;;;8.40;6.35;;;9.70;99.90;;;;;;5063707;28;20089;-87
2022/04/19 00:05:10;;;;;;;8.30;6.57;;;9.60;99.90;;;;;;5063619;28;20028;-86
2022/04/19 00:07:37;;;;;;;8.00;5.97;;;9.60;99.90;;;;;;5045718;28;20041;-86
2022/04/19 00:10:05;;;;;;;9.80;6.00;;;9.60;99.90;;;;;;5056168;28;20053;-87
2022/04/19 00:12:30;;;;;;;7.82;6.63;;;9.60;99.90;;;;;;5044010;28;20048;-87
2022/04/19 00:14:56;;;;;;;8.88;6.20;;;9.60;99.90;;;;;;5026047;28;20561;-86
2022/04/19 00:17:21;;;;;;;9.75;6.05;;;9.60;99.90;;;;;;5043263;28;20622;-87
2022/04/19 00:19:47;;;;;;;7.82;5.78;;;9.60;99.90;;;;;;5043583;28;20119;-87
2022/04/19 00:22:12;;;;;;;8.10;7.00;;;9.60;99.90;;;;;;5043310;28;20044;-87
2022/04/19 00:24:39;;;;;;;6.88;6.10;;;9.50;99.90;;;;;;5043119;28;20047;-87
2022/04/19 00:27:05;;;;;;;8.07;6.60;;;9.50;99.90;;;;;;5041964;28;20044;-86
2022/04/19 00:29:30;;;;;;;6.30;5.72;;;9.50;99.90;;;;;;5043556;28;20032;-86
2022/04/19 00:31:56;;;;;;;8.07;6.65;;;9.50;99.90;;;;;;5043802;28;20091;-86
2022/04/19 00:34:22;;;;;;;6.40;5.07;;;9.40;99.90;;;;;;5024989;28;20498;-87
2022/04/19 00:36:48;;;;;;;6.75;6.15;;;9.40;99.90;;;;;;5025253;28;20044;-86
2022/04/19 00:39:13;;;;;;;5.72;5.20;;;9.40;99.90;;;;;;5042796;28;20037;-86
2022/04/19 00:41:39;;;;;;;11.73;6.68;;;9.40;99.90;;;;;;5042212;28;20053;-86
2022/04/19 00:44:04;;;;;;;12.13;6.55;;;9.30;99.90;;;;;;5025319;28;20052;-86
2022/04/19 00:46:30;;;;;;;8.10;6.85;;;9.30;99.90;;;;;;5035910;28;20101;-85
2022/04/19 00:48:56;;;;;;;11.38;6.05;;;9.30;99.90;;;;;;5058639;28;20494;-86
2022/04/19 00:51:23;;;;;;;6.70;5.72;;;9.30;99.90;;;;;;5044889;28;20304;-86
2022/04/19 00:53:49;;;;;;;10.90;7.28;;;9.30;99.90;;;;;;5062241;28;20378;-87
2022/04/19 00:56:15;;;;;;;9.63;5.75;;;9.30;99.90;;;;;;5061506;28;20044;-87
2022/04/19 00:58:41;;;;;;;8.02;6.15;;;9.20;99.90;;;;;;5063017;28;20041;-87
2022/04/19 01:01:06;;;;;;;11.05;7.10;;;9.20;99.90;;;;;;5044275;28;20395;-87
2022/04/19 01:03:32;;;;;;;8.32;6.10;;;9.20;99.90;;;;;;5062983;28;20079;-87
2022/04/19 01:05:59;;;;;;;6.47;5.97;;;9.20;99.90;;;;;;5063305;28;20041;-87
2022/04/19 01:08:25;;;;;;;8.27;6.07;;;9.10;99.90;;;;;;5062509;28;20131;-86
2022/04/19 01:13:17;;;;;;;5.57;5.07;;;9.10;99.90;;;;;;5061397;28;20529;-86
2022/04/19 01:13:37;;;;;;;7.97;5.53;;;9.10;99.90;;;;;;5062759;28;20037;-87
2022/04/19 01:16:03;;;;;;;7.95;5.38;;;9.00;99.90;;;;;;5044244;28;20051;-86
2022/04/19 01:18:29;;;;;;;7.30;5.57;;;9.00;99.90;;;;;;5062492;28;20547;-86
2022/04/19 01:20:55;;;;;;;6.90;6.03;;;9.00;99.90;;;;;;5044823;28;20056;-87
2022/04/19 01:23:22;;;;;;;7.18;5.78;;;9.00;99.90;;;;;;5062057;28;20393;-87
2022/04/19 01:25:49;;;;;;;9.05;4.65;;;9.00;99.90;;;;;;5043374;28;20072;-87
2022/04/19 01:28:15;;;;;;;7.50;6.05;;;9.00;99.90;;;;;;5044226;28;20402;-87
2022/04/19 01:30:45;;;;;;;6.45;5.00;;;8.90;99.90;;;;;;5061871;28;20043;-86
2022/04/19 01:33:10;;;;;;;9.23;7.18;;;8.90;99.90;;;;;;5062037;28;20237;-87
2022/04/19 01:35:36;;;;;;;5.13;4.57;;;8.90;99.90;;;;;;5062047;28;20321;-86
2022/04/19 01:38:01;;;;;;;5.88;5.22;;;8.90;99.90;;;;;;5061902;28;20135;-86
2022/04/19 01:40:27;;;;;;;5.82;5.32;;;8.80;99.90;;;;;;5061656;28;20048;-86
2022/04/19 01:42:58;;;;;;;10.57;5.32;;;8.80;99.90;;;;;;5062155;28;20453;-86
2022/04/19 01:45:26;;;;;;;7.63;5.75;;;8.80;99.90;;;;;;5056974;28;20246;-87
2022/04/19 01:47:53;;;;;;;6.60;4.60;;;8.80;99.90;;;;;;5024133;28;20083;-86
2022/04/19 01:50:20;;;;;;;5.57;5.05;;;8.80;99.90;;;;;;5041609;28;20037;-86
2022/04/19 01:52:47;;;;;;;6.57;3.97;;;8.70;99.90;;;;;;5024161;28;20045;-87
2022/04/19 01:55:14;;;;;;;5.15;4.55;;;8.80;99.90;;;;;;5040675;28;20098;-86
2022/04/19 01:57:45;;;;;;;11.32;6.20;;;8.70;99.90;;;;;;5023831;28;20550;-86
2022/04/19 02:00:12;;;;;;;4.95;4.45;;;8.70;99.90;;;;;;5041423;28;20078;-87
2022/04/19 02:02:38;;;;;;;11.63;5.63;;;8.70;99.90;;;;;;5041502;28;20111;-86
2022/04/19 02:05:05;;;;;;;6.28;5.15;;;8.70;99.90;;;;;;5041235;28;20625;-86
2022/04/19 02:07:32;;;;;;;5.43;4.55;;;8.60;99.90;;;;;;5041526;28;20430;-86
2022/04/19 02:10:01;;;;;;;8.00;5.68;;;8.60;99.90;;;;;;5017359;28;20060;-87
2022/04/19 02:12:27;;;;;;;10.27;7.15;;;8.60;99.90;;;;;;5040127;28;20045;-87
2022/04/19 02:14:53;;;;;;;10.50;4.00;;;8.60;99.90;;;;;;5041640;28;20124;-87
2022/04/19 02:17:20;;;;;;;7.18;5.93;;;8.60;99.90;;;;;;5041195;28;20131;-86
2022/04/19 02:19:49;;;;;;;4.53;3.88;;;8.50;99.90;;;;;;5041243;28;20045;-86
2022/04/19 02:22:15;;;;;;;15.48;6.35;;;8.50;99.90;;;;;;5041336;28;20033;-87
2022/04/19 02:24:41;;;;;;;4.78;4.10;;;8.50;99.90;;;;;;5041108;28;20033;-87
2022/04/19 02:27:06;;;;;;;10.85;5.15;;;8.50;99.90;;;;;;5040546;28;20045;-86
2022/04/19 02:29:32;;;;;;;4.70;4.18;;;8.50;99.90;;;;;;5041204;28;20552;-86
2022/04/19 02:31:58;;;;;;;16.85;5.40;;;8.40;99.90;;;;;;5041380;28;20064;-84
2022/04/19 02:34:23;;;;;;;7.72;5.38;;;8.40;99.90;;;;;;5040598;28;20491;-86
2022/04/19 02:36:49;;;;;;;8.45;5.45;;;8.40;99.90;;;;;;5041067;28;20514;-86
2022/04/19 02:39:15;;;;;;;7.10;5.22;;;8.40;99.90;;;;;;5040719;28;20349;-87
2022/04/19 02:41:40;;;;;;;7.90;4.65;;;8.30;99.90;;;;;;5039955;28;20037;-87
2022/04/19 02:44:09;;;;;;;7.35;5.82;;;8.30;99.90;;;;;;5040827;28;20045;-87
2022/04/19 02:46:37;;;;;;;8.38;4.93;;;8.30;99.90;;;;;;5051206;28;20597;-87
2022/04/19 02:49:06;;;;;;;5.55;5.03;;;8.30;99.90;;;;;;5060631;28;20624;-87
2022/04/19 02:51:35;;;;;;;4.13;3.75;;;8.30;99.90;;;;;;5043167;28;20075;-87
2022/04/19 02:54:01;;;;;;;7.05;4.70;;;8.30;99.90;;;;;;5042996;28;20487;-78
2022/04/19 02:56:27;;;;;;;5.43;4.93;;;8.20;99.90;;;;;;5058654;28;20044;-86
2022/04/19 02:58:53;;;;;;;5.85;4.35;;;8.20;99.90;;;;;;5042411;28;20040;-87
2022/04/19 03:01:18;;;;;;;4.55;3.90;;;8.20;99.90;;;;;;5059605;28;20041;-87
2022/04/19 03:03:45;;;;;;;5.68;5.18;;;8.20;99.90;;;;;;5042860;28;20365;-87
2022/04/19 03:06:10;;;;;;;6.55;5.88;;;8.20;99.90;;;;;;5042405;28;20044;-86
2022/04/19 03:08:36;;;;;;;5.03;4.50;;;8.20;99.90;;;;;;5060296;28;20045;-87
2022/04/19 03:11:04;;;;;;;10.90;4.07;;;8.20;99.90;;;;;;5059134;28;20053;-86
2022/04/19 03:13:32;;;;;;;5.70;3.50;;;8.20;99.90;;;;;;5060615;28;20236;-87
2022/04/19 03:15:57;;;;;;;6.50;5.45;;;8.10;99.90;;;;;;5042823;28;20332;-86
2022/04/19 03:18:23;;;;;;;6.80;4.25;;;8.10;99.90;;;;;;5059920;28;20043;-87
2022/04/19 03:20:49;;;;;;;7.60;4.78;;;8.10;99.90;;;;;;5060329;28;20038;-86
2022/04/19 03:28:45;;;;;;;8.40;5.35;;;8.10;99.90;;;;;;5060105;28;20110;-86
2022/04/19 03:31:12;;;;;;;6.15;3.90;;;8.10;99.90;;;;;;5059718;28;20047;-87
2022/04/19 03:33:39;;;;;;;5.28;4.57;;;8.10;99.90;;;;;;5060436;28;20041;-87
2022/04/19 03:36:05;;;;;;;6.15;4.57;;;8.10;99.90;;;;;;5059636;28;20079;-86
2022/04/19 03:38:32;;;;;;;7.72;6.05;;;8.10;99.90;;;;;;5060483;28;20037;-77
2022/04/19 03:40:57;;;;;;;5.38;4.30;;;8.10;99.90;;;;;;5059763;28;20471;-86
2022/04/19 03:43:23;;;;;;;8.82;5.03;;;8.00;99.90;;;;;;5059698;28;20233;-87
2022/04/19 03:45:49;;;;;;;8.65;5.30;;;8.00;99.90;;;;;;5033679;28;20241;-87
2022/04/19 03:48:14;;;;;;;5.90;4.85;;;8.00;99.90;;;;;;5039629;28;20375;-86
2022/04/19 03:50:40;;;;;;;7.72;5.63;;;8.00;99.90;;;;;;5040205;28;20041;-87
2022/04/19 03:53:07;;;;;;;7.45;6.82;;;8.00;99.90;;;;;;5040301;28;20044;-87
2022/04/19 03:55:32;;;;;;;6.50;5.32;;;8.00;99.90;;;;;;5038653;28;20479;-86
2022/04/19 03:57:58;;;;;;;7.70;5.80;;;7.90;99.90;;;;;;5040555;28;20055;-87
2022/04/19 04:00:24;;;;;;;5.43;4.88;;;7.90;99.90;;;;;;5022149;28;20048;-87
2022/04/19 04:02:49;;;;;;;3.88;3.58;;;7.90;99.90;;;;;;5021580;28;20260;-87
2022/04/19 04:05:15;;;;;;;7.05;4.28;;;7.90;99.90;;;;;;5022061;28;20029;-87
2022/04/19 04:07:42;;;;;;;6.85;4.88;;;7.90;99.90;;;;;;5039655;28;20183;-87
2022/04/19 04:10:08;;;;;;;6.93;5.80;;;7.80;99.90;;;;;;5039057;28;20134;-87
2022/04/19 04:12:34;;;;;;;5.57;4.15;;;7.80;99.90;;;;;;5059902;28;20507;-87
2022/04/19 04:15:03;;;;;;;4.55;4.13;;;7.80;99.90;;;;;;5025250;28;20052;-87
2022/04/19 04:17:29;;;;;;;7.03;5.63;;;7.80;99.90;;;;;;5060161;28;20045;-87
2022/04/19 04:19:57;;;;;;;5.38;4.88;;;7.80;99.90;;;;;;5059651;28;20187;-87
2022/04/19 04:22:22;;;;;;;8.15;5.38;;;7.80;99.90;;;;;;5059605;28;20044;-87
2022/04/19 04:24:48;;;;;;;8.93;5.40;;;7.80;99.90;;;;;;5059090;28;20517;-87
2022/04/19 04:27:13;;;;;;;12.10;5.38;;;7.80;99.90;;;;;;5024355;28;20052;-86
2022/04/19 04:29:39;;;;;;;5.10;4.20;;;7.80;99.90;;;;;;5044173;28;20068;-87
2022/04/19 04:32:05;;;;;;;6.68;5.30;;;7.80;99.90;;;;;;5062785;28;20047;-86
2022/04/19 04:34:31;;;;;;;8.02;6.68;;;7.80;99.90;;;;;;5063352;28;20560;-79
2022/04/19 04:36:56;;;;;;;5.03;4.60;;;7.70;99.90;;;;;;5063661;28;20098;-87
2022/04/19 04:39:22;;;;;;;9.85;5.88;;;7.80;99.90;;;;;;5061719;28;20029;-86
2022/04/19 04:41:47;;;;;;;8.95;6.72;;;7.70;99.90;;;;;;5063026;28;20473;-86
2022/04/19 04:44:13;;;;;;;8.52;5.10;;;7.70;99.90;;;;;;5062735;28;20040;-87
2022/04/19 04:52:18;;;;;;;5.05;4.55;;;7.70;99.90;;;;;;5077493;28;20121;-87
2022/04/19 04:54:44;;;;;;;3.88;3.22;;;7.70;99.90;;;;;;5082026;28;20624;-85
2022/04/19 04:57:10;;;;;;;6.35;5.13;;;7.70;99.90;;;;;;5079726;28;20112;-86
2022/04/19 04:59:36;;;;;;;9.27;5.55;;;7.70;99.90;;;;;;5082609;28;20047;-86
2022/04/19 05:02:03;;;;;;;5.00;4.30;;;7.70;99.90;;;;;;5065086;28;20036;-86
2022/04/19 05:04:29;;;;;;;13.45;5.40;;;7.70;99.90;;;;;;5084754;28;20110;-86
2022/04/19 05:06:55;;;;;;;7.97;4.22;;;7.70;99.90;;;;;;5083762;28;20152;-86
2022/04/19 05:09:21;;;;;;;4.85;4.30;;;7.80;99.90;;;;;;5081846;28;20189;-86
2022/04/19 05:11:46;;;;;;;8.02;4.75;;;7.80;99.90;;;;;;5063546;28;20568;-86
2022/04/19 05:14:13;;;;;;;5.57;4.85;;;7.80;99.90;;;;;;5045724;28;20056;-86
2022/04/19 05:16:39;;;;;;;6.35;4.28;;;7.80;99.90;;;;;;5042755;28;20712;-86
2022/04/19 05:19:05;;;;;;;8.90;5.15;;;7.90;99.90;;;;;;5041900;28;20051;-86
2022/04/19 05:21:31;;;;;;;4.88;4.25;;;7.90;99.90;;;;;;5042928;28;20064;-86
2022/04/19 05:23:57;;;;;;;8.02;5.38;;;7.90;99.90;;;;;;5043134;28;20059;-87
2022/04/19 05:26:27;;;;;;;6.18;5.45;;;7.90;99.90;;;;;;5028367;28;20515;-84
2022/04/19 05:28:53;;;;;;;4.53;4.00;;;7.90;99.90;;;;;;5024187;28;20049;-84
2022/04/19 05:31:19;;;;;;;4.63;3.70;;;7.90;99.90;;;;;;5042895;28;20072;-83
2022/04/19 05:33:44;;;;;;;6.32;4.90;;;7.90;99.90;;;;;;5042586;28;20122;-85
2022/04/19 05:36:12;;;;;;;4.35;3.95;;;7.90;99.90;;;;;;5043724;28;20102;-85
2022/04/19 05:38:37;;;;;;;5.00;4.05;;;8.00;99.90;;;;;;5046495;28;20045;-87
2022/04/19 05:41:03;;;;;;;4.70;3.97;;;8.00;99.90;;;;;;5041603;28;20442;-86
2022/04/19 05:43:28;;;;;;;8.10;3.80;;;8.00;99.90;;;;;;5044130;28;20037;-85
2022/04/19 05:45:55;;;;;;;6.45;5.63;;;8.00;99.90;;;;;;5049982;28;20246;-85
2022/04/19 05:48:21;;;;;;;8.45;5.90;;;8.10;99.90;;;;;;5044180;28;20159;-84
2022/04/19 05:50:46;;;;;;;6.90;6.20;;;8.10;99.90;;;;;;5043102;28;20032;-83
2022/04/19 05:53:12;;;;;;;8.27;4.43;;;8.10;99.90;;;;;;5043443;28;20107;-84
2022/04/19 05:55:37;;;;;;;5.50;4.32;;;8.20;99.90;;;;;;5041782;28;20041;-83
2022/04/19 05:58:03;;;;;;;3.60;3.15;;;8.20;99.90;;;;;;5025519;28;20072;-82
2022/04/19 06:00:29;;;;;;;7.20;4.55;;;8.20;99.90;;;;;;5043636;28;20127;-83
2022/04/19 06:05:38;;;;;;;8.05;4.75;;;8.30;99.90;;;;;;5042599;28;20052;-86
2022/04/19 06:08:04;;;;;;;12.52;5.18;;;8.30;99.90;;;;;;5037611;28;20049;-87
2022/04/19 06:10:30;;;;;;;6.47;4.97;;;8.30;99.90;;;;;;5042332;28;20057;-84
2022/04/19 06:12:55;;;;;;;5.30;4.63;;;8.30;99.90;;;;;;5042255;28;20403;-82
2022/04/19 06:15:21;;;;;;;6.00;5.22;;;8.40;99.90;;;;;;5041744;28;20313;-84
2022/04/19 06:17:46;;;;;;;7.55;4.80;;;8.40;99.90;;;;;;5041295;28;20178;-84
2022/04/19 06:20:12;;;;;;;7.72;4.18;;;8.50;99.90;;;;;;5040460;28;20068;-84
2022/04/19 06:22:38;;;;;;;6.35;4.70;;;8.50;99.90;;;;;;5041136;28;20459;-84
2022/04/19 06:25:05;;;;;;;8.35;5.28;;;8.50;99.90;;;;;;5040139;28;20045;-84
2022/04/19 06:27:31;;;;;;;5.15;4.03;;;8.60;99.90;;;;;;5006785;28;20048;-84
2022/04/19 06:29:57;;;;;;;5.88;5.28;;;8.60;99.90;;;;;;5041418;28;20045;-84
2022/04/19 06:32:24;;;;;;;7.95;4.68;;;8.60;99.90;;;;;;5040597;28;20080;-84
2022/04/19 06:34:50;;;;;;;6.22;4.70;;;8.60;99.90;;;;;;5041511;28;20048;-85
2022/04/19 06:37:16;;;;;;;7.47;5.05;;;8.70;99.90;;;;;;5038060;28;20044;-85
2022/04/19 06:39:41;;;;;;;4.82;4.38;;;8.70;99.90;;;;;;5040641;28;20043;-84
2022/04/19 06:42:07;;;;;;;4.30;3.08;;;8.70;99.90;;;;;;5041306;28;20334;-84
2022/04/19 06:44:33;;;;;;;17.85;4.93;;;8.80;99.90;;;;;;5041669;28;20128;-84
2022/04/19 06:46:59;;;;;;;6.55;4.30;;;8.80;99.90;;;;;;5044783;28;20049;-84
2022/04/19 06:49:25;;;;;;;4.30;3.90;;;8.90;99.90;;;;;;5013922;28;20462;-85
2022/04/19 06:51:50;;;;;;;6.57;4.65;;;8.90;99.90;;;;;;5044876;28;20323;-85
2022/04/19 06:54:16;;;;;;;8.43;5.18;;;9.00;99.90;;;;;;5029130;28;20045;-85
2022/04/19 06:56:42;;;;;;;5.28;4.40;;;9.00;99.90;;;;;;5050925;28;20043;-84
2022/04/19 06:59:08;;;;;;;17.08;4.03;;;9.10;99.90;;;;;;5041845;28;20037;-85
2022/04/19 07:01:35;;;;;;;5.05;4.55;;;9.10;99.90;;;;;;5044621;28;20041;-85
2022/04/19 07:04:01;;;;;;;8.07;4.43;;;9.20;99.90;;;;;;5044669;28;20070;-83
2022/04/19 07:06:27;;;;;;;10.15;4.40;;;9.20;99.90;;;;;;5047323;28;20051;-84
2022/04/19 07:08:52;;;;;;;6.65;4.78;;;9.20;99.90;;;;;;5046285;28;20033;-85
2022/04/19 07:11:18;;;;;;;5.20;3.55;;;9.20;99.90;;;;;;5028564;28;20091;-86
2022/04/19 07:13:44;;;;;;;7.30;5.93;;;9.30;99.90;;;;;;5039563;28;20543;-86
2022/04/19 07:16:09;;;;;;;6.35;5.32;;;9.40;99.90;;;;;;5024685;28;20044;-86
2022/04/19 07:18:36;;;;;;;3.92;3.55;;;9.40;99.90;;;;;;5042567;28;20042;-86
2022/04/19 07:26:40;;;;;;;8.45;3.85;;;9.50;99.90;;;;;;5033285;28;20060;-87
2022/04/19 07:29:12;;;;;;;5.07;4.22;;;9.60;99.90;;;;;;5035799;28;20622;-85
2022/04/19 07:31:42;;;;;;;9.07;5.32;;;9.60;99.90;;;;;;5032044;28;20384;-83
2022/04/19 07:34:09;;;;;;;7.57;4.68;;;9.70;99.90;;;;;;5024101;28;20124;-81
2022/04/19 07:36:39;;;;;;;7.05;4.07;;;9.70;99.90;;;;;;5033401;28;20030;-82
2022/04/19 07:39:06;;;;;;;6.70;5.18;;;9.70;99.90;;;;;;5035946;28;20037;-81
2022/04/19 07:41:32;;;;;;;6.13;4.32;;;9.80;99.90;;;;;;5016639;28;20132;-81
2022/04/19 07:43:57;;;;;;;9.57;4.35;;;9.90;99.90;;;;;;5040933;28;20535;-81
2022/04/19 07:46:23;;;;;;;5.30;3.90;;;9.90;99.90;;;;;;5047244;28;20047;-81
2022/04/19 07:48:51;;;;;;;7.85;5.53;;;10.00;99.90;;;;;;5038598;28;20047;-81
2022/04/19 07:51:18;;;;;;;9.82;5.45;;;10.00;99.90;;;;;;5043868;28;20037;-84
2022/04/19 07:53:44;;;;;;;7.50;4.45;;;10.10;99.90;;;;;;5033986;28;20046;-83
2022/04/19 07:56:09;;;;;;;6.50;4.05;;;10.10;99.90;;;;;;5019188;28;20534;-83
2022/04/19 07:58:35;;;;;;;7.05;4.40;;;10.10;99.90;;;;;;5025090;28;20049;-83
2022/04/19 08:01:01;;;;;;;6.57;2.92;;;10.20;99.90;;;;;;5040089;28;20055;-83
2022/04/19 08:03:27;;;;;;;9.27;5.18;;;10.20;99.90;;;;;;5060975;28;20446;-83
2022/04/19 08:05:53;;;;;;;7.78;4.63;;;10.20;99.90;;;;;;5051908;28;20044;-82
2022/04/19 08:08:21;;;;;;;8.10;4.50;;;10.30;99.90;;;;;;5041358;28;20041;-82
2022/04/19 08:10:47;;;;;;;8.65;4.25;;;10.30;99.90;;;;;;5047669;28;20060;-83
2022/04/19 08:13:13;;;;;;;5.85;3.90;;;10.30;99.90;;;;;;5063362;28;20052;-84
2022/04/19 08:15:39;;;;;;;6.65;4.50;;;10.40;99.90;;;;;;5062907;28;20035;-83
2022/04/19 08:18:05;;;;;;;5.57;4.45;;;10.40;99.90;;;;;;5062974;28;20040;-82
2022/04/19 08:20:31;;;;;;;11.48;5.30;;;10.50;99.90;;;;;;5062750;28;20072;-81
2022/04/19 08:22:56;;;;;;;4.90;4.10;;;10.50;99.90;;;;;;5061834;28;20079;-82
2022/04/19 08:25:22;;;;;;;3.88;3.58;;;10.60;99.90;;;;;;5061500;28;20040;-83
2022/04/19 08:27:48;;;;;;;6.65;3.90;;;10.60;99.90;;;;;;5056176;28;20080;-84
2022/04/19 08:30:15;;;;;;;4.53;4.13;;;10.60;99.90;;;;;;5063265;28;20036;-84
2022/04/19 08:32:42;;;;;;;4.65;3.97;;;10.70;99.90;;;;;;5063206;28;20217;-81
2022/04/19 08:35:09;;;;;;;6.85;3.35;;;10.70;99.90;;;;;;5062918;28;20105;-81
2022/04/19 08:37:35;;;;;;;7.22;3.83;;;10.70;99.90;;;;;;5062031;28;20048;-81
2022/04/19 08:40:06;;;;;;;4.78;3.30;;;10.80;99.90;;;;;;5061595;28;20032;-82
2022/04/19 08:42:32;;;;;;;4.00;2.97;;;10.80;99.90;;;;;;5063463;28;20048;-82
2022/04/19 08:45:03;;;;;;;4.30;3.42;;;10.90;99.90;;;;;;5058494;28;20040;-81
2022/04/19 08:47:33;;;;;;;5.65;3.60;;;11.00;99.90;;;;;;5052771;28;20048;-84
2022/04/19 08:50:04;;;;;;;5.65;3.85;;;11.00;99.90;;;;;;5059724;28;20244;-84
2022/04/19 08:52:32;;;;;;;4.70;2.90;;;11.10;99.90;;;;;;5053072;28;20044;-84
2022/04/19 08:57:42;;;;;;;4.03;3.45;;;11.30;99.90;;;;;;5050893;28;20098;-83
2022/04/19 09:00:08;;;;;;;2.97;2.35;;;11.30;99.90;;;;;;5061984;28;20045;-84
2022/04/19 09:02:37;;;;;;;3.50;2.85;;;11.40;99.90;;;;;;5061859;28;20115;-83
2022/04/19 09:05:23;;;;;;;4.38;3.45;;;11.40;99.90;;;;;;5061678;28;20193;-83
2022/04/19 09:07:50;;;;;;;5.57;3.15;;;11.50;99.90;;;;;;5061085;28;20343;-83
2022/04/19 09:10:26;;;;;;;8.15;3.22;;;11.50;99.90;;;;;;5060714;28;20049;-83
2022/04/19 09:13:06;;;;;;;7.38;3.58;;;11.50;99.90;;;;;;5058634;28;20040;-83
2022/04/19 09:15:40;;;;;;;3.83;2.17;;;11.50;99.90;;;;;;5057564;28;20052;-83
2022/04/19 09:18:29;;;;;;;7.18;2.60;;;11.60;99.90;;;;;;5062150;28;20045;-83
2022/04/19 09:20:59;;;;;;;5.13;2.70;;;11.70;99.90;;;;;;5063287;28;20115;-83
2022/04/19 09:23:26;;;;;;;4.13;3.25;;;11.70;99.90;;;;;;5061917;28;20048;-84
2022/04/19 09:26:13;;;;;;;5.95;2.90;;;11.80;99.90;;;;;;5027482;28;20062;-83
2022/04/19 09:28:39;;;;;;;2.63;2.42;;;11.80;99.90;;;;;;5061335;28;20088;-83
2022/04/19 09:31:11;;;;;;;4.07;2.92;;;11.90;99.90;;;;;;5061004;28;20076;-84
2022/04/19 09:33:36;;;;;;;3.97;2.50;;;11.90;99.90;;;;;;5063156;28;20056;-84
2022/04/19 09:36:03;;;;;;;1.98;1.65;;;11.90;99.90;;;;;;5063000;28;20051;-84
2022/04/19 09:38:32;;;;;;;4.25;2.72;;;12.00;99.90;;;;;;5063865;28;20468;-83
2022/04/19 09:40:57;;;;;;;1.85;1.73;;;12.00;99.90;;;;;;5044580;28;20534;-82
2022/04/19 09:43:24;;;;;;;4.05;2.88;;;12.10;99.90;;;;;;5062574;28;20049;-82
2022/04/19 09:45:51;;;;;;;5.30;1.80;;;12.10;99.90;;;;;;5050637;28;20139;-83
2022/04/19 09:48:18;;;;;;;2.42;2.22;;;12.20;99.90;;;;;;5062880;28;20253;-82
2022/04/19 09:50:52;;;;;;;2.78;2.25;;;12.20;99.90;;;;;;5055692;28;20132;-83
2022/04/19 09:53:20;;;;;;;5.22;2.35;;;12.30;99.90;;;;;;5043666;28;20048;-83
2022/04/19 09:55:48;;;;;;;1.90;1.80;;;12.30;99.90;;;;;;5060661;28;20040;-82
2022/04/19 09:58:15;;;;;;;2.40;1.58;;;12.40;99.90;;;;;;5061845;28;20555;-82
2022/04/19 10:00:41;;;;;;;3.92;2.20;;;12.40;99.90;;;;;;5027224;28;20055;-83
2022/04/19 10:08:38;;;;;;;2.67;2.08;;;12.50;99.90;;;;;;5043298;28;20091;-84
2022/04/19 10:11:04;;;;;;;1.08;1.02;;;12.50;99.90;;;;;;5044049;28;20666;-84
2022/04/19 10:13:32;;;;;;;3.13;2.53;;;12.50;99.90;;;;;;5062294;28;20071;-83
2022/04/19 10:15:58;;;;;;;1.77;1.67;;;12.50;99.90;;;;;;5061265;28;20106;-83
2022/04/19 10:18:24;;;;;;;2.85;1.77;;;12.60;99.90;;;;;;5061365;28;20252;-83
2022/04/19 10:20:56;;;;;;;1.95;1.42;;;12.70;99.90;;;;;;5043801;28;20060;-87
2022/04/19 10:23:36;;;;;;;1.33;1.23;;;12.70;99.90;;;;;;5062066;28;20044;-85
2022/04/19 10:26:22;;;;;;;1.40;1.05;;;12.70;99.90;;;;;;5043579;28;20040;-84
2022/04/19 10:28:56;;;;;;;2.60;1.25;;;12.70;99.90;;;;;;5044455;28;20040;-84
2022/04/19 10:31:31;;;;;;;0.95;0.93;;;12.80;99.90;;;;;;5062106;28;20365;-84
2022/04/19 10:34:01;;;;;;;0.85;0.82;;;12.80;99.90;;;;;;5044284;28;20114;-84
2022/04/19 10:36:34;;;;;;;0.63;0.63;;;12.80;99.90;;;;;;5062767;28;20489;-84
2022/04/19 10:39:11;;;;;;;0.75;0.75;;;12.80;99.90;;;;;;5043326;28;20047;-84
2022/04/19 10:41:57;;;;;;;0.60;0.60;;;12.70;99.90;;;;;;5061192;28;20098;-83
2022/04/19 10:44:48;;;;;;;1.48;0.93;;;12.80;99.90;;;;;;5041033;28;20041;-84
2022/04/19 10:47:18;;;;;;;1.00;0.88;;;12.90;99.90;;;;;;5051473;28;20063;-84
2022/04/19 10:50:00;;;;;;;1.15;1.08;;;12.90;99.90;;;;;;5061280;28;20041;-85
2022/04/19 10:52:42;;;;;;;0.65;0.65;;;12.90;99.90;;;;;;5061114;28;20044;-84
2022/04/19 10:55:24;;;;;;;0.95;0.82;;;12.90;99.90;;;;;;5059477;28;20040;-84
2022/04/19 10:58:09;;;;;;;1.20;1.10;;;13.00;99.90;;;;;;5025597;28;20036;-83
2022/04/19 11:00:36;;;;;;;1.38;1.23;;;13.00;99.90;;;;;;5061165;28;20045;-83
2022/04/19 11:03:05;;;;;;;0.90;0.90;;;13.00;99.90;;;;;;5043096;28;20045;-82
2022/04/19 11:05:43;;;;;;;0.40;0.40;;;13.10;99.90;;;;;;5060310;28;20040;-84
2022/04/19 11:08:26;;;;;;;0.70;0.70;;;13.10;99.90;;;;;;5025331;28;20036;-84
2022/04/19 11:11:21;;;;;;;0.70;0.70;;;13.20;99.90;;;;;;5022382;28;20053;-83
2022/04/19 11:14:18;;;;;;;1.98;0.60;;;13.20;99.90;;;;;;5023114;28;20423;-84
2022/04/19 11:16:44;;;;;;;0.80;0.80;;;13.20;99.90;;;;;;5025345;28;20052;-84
2022/04/19 11:19:21;;;;;;;1.20;1.05;;;13.20;99.90;;;;;;5060435;28;20080;-83
2022/04/19 11:21:53;;;;;;;1.02;0.98;;;13.20;99.90;;;;;;5060854;28;20045;-85
2022/04/19 11:24:57;;;;;;;1.20;1.10;;;13.30;99.90;;;;;;5059123;28;20453;-84
2022/04/19 11:27:23;;;;;;;1.35;0.80;;;13.30;99.90;;;;;;5054930;28;20052;-84
2022/04/19 11:29:50;;;;;;;0.38;0.38;;;13.30;99.90;;;;;;5060398;28;20032;-84
2022/04/19 11:32:24;;;;;;;1.42;1.17;;;13.40;99.90;;;;;;5060024;28;20348;-84
2022/04/19 11:35:01;;;;;;;0.85;0.85;;;13.40;99.90;;;;;;5060505;28;20084;-84
2022/04/19 11:37:29;;;;;;;2.00;1.23;;;13.40;99.90;;;;;;5042376;28;20036;-85
2022/04/19 11:48:33;;;;;;;2.40;1.60;;;13.50;99.90;;;;;;5056258;28;20711;-86
2022/04/19 11:51:09;;;;;;;2.08;0.80;;;13.50;99.90;;;;;;5061897;28;20060;-84
2022/04/19 11:53:37;;;;;;;0.85;0.85;;;13.60;99.90;;;;;;5054760;28;20121;-85
2022/04/19 11:56:03;;;;;;;1.08;1.00;;;13.60;99.90;;;;;;5045155;28;20044;-87
2022/04/19 11:58:30;;;;;;;1.77;1.40;;;13.60;99.90;;;;;;5057425;28;20519;-88
2022/04/19 12:01:05;;;;;;;2.05;0.90;;;13.60;99.90;;;;;;5042729;28;20453;-88
2022/04/19 12:03:40;;;;;;;0.77;0.73;;;13.60;99.90;;;;;;5046870;28;20140;-86
2022/04/19 12:06:07;;;;;;;2.00;1.88;;;13.70;99.90;;;;;;5055403;28;20111;-86
2022/04/19 12:08:38;;;;;;;1.30;1.20;;;13.70;99.90;;;;;;5047197;28;20044;-87
2022/04/19 12:11:07;;;;;;;1.57;1.23;;;13.80;99.90;;;;;;5020232;28;20521;-87
2022/04/19 12:13:33;;;;;;;1.40;1.10;;;13.80;99.90;;;;;;5066846;28;20340;-88
2022/04/19 12:16:00;;;;;;;0.88;0.88;;;13.80;99.90;;;;;;5060947;28;20655;-88
2022/04/19 12:18:52;;;;;;;2.13;1.15;;;13.80;99.90;;;;;;5046762;28;20084;-88
2022/04/19 12:21:39;;;;;;;0.70;0.70;;;13.80;99.90;;;;;;5059598;28;20047;-86
2022/04/19 12:24:26;;;;;;;0.65;0.65;;;13.90;99.90;;;;;;5061995;28;20048;-87
2022/04/19 12:27:02;;;;;;;0.68;0.68;;;14.00;99.90;;;;;;5080178;28;20670;-87
2022/04/19 12:29:28;;;;;;;1.70;1.25;;;14.00;99.90;;;;;;5052231;28;20051;-85
2022/04/19 12:31:57;;;;;;;1.13;1.02;;;14.00;99.90;;;;;;5064997;28;20209;-89
2022/04/19 12:34:38;;;;;;;1.33;1.23;;;14.00;99.90;;;;;;5046285;28;20059;-87
2022/04/19 12:37:08;;;;;;;1.40;1.30;;;14.00;99.90;;;;;;5066454;28;20041;-85
2022/04/19 12:39:34;;;;;;;0.70;0.70;;;14.10;99.90;;;;;;5062509;28;20103;-86
2022/04/19 12:42:09;;;;;;;0.93;0.93;;;14.00;99.90;;;;;;5056651;28;20555;-92
2022/04/19 12:44:37;;;;;;;0.70;0.70;;;14.10;99.90;;;;;;5060603;28;20192;-93
2022/04/19 12:47:25;;;;;;;3.75;0.95;;;14.10;99.90;;;;;;5052299;28;20060;-95
2022/04/19 12:49:51;;;;;;;1.40;1.00;;;14.10;99.90;;;;;;5039576;28;20061;-89
2022/04/19 12:52:16;;;;;;;2.60;1.52;;;14.10;99.90;;;;;;5063947;28;20561;-85
2022/04/19 12:54:50;;;;;;;1.73;1.60;;;14.20;99.90;;;;;;5067302;28;20403;-90
2022/04/19 12:57:23;;;;;;;2.28;1.30;;;14.20;99.90;;;;;;5052086;28;20506;-84
2022/04/19 12:59:53;;;;;;;4.38;1.50;;;14.20;99.90;;;;;;5041855;28;20067;-89
2022/04/19 13:02:20;;;;;;;1.35;1.10;;;14.30;99.90;;;;;;5053029;28;20044;-86
2022/04/19 13:04:46;;;;;;;3.08;1.75;;;14.30;99.90;;;;;;5055669;28;20048;-88
2022/04/19 13:13:15;;;;;;;1.52;1.20;;;14.30;99.90;;;;;;5060326;28;20038;-94
2022/04/19 13:15:41;;;;;;;0.95;0.95;;;14.30;99.90;;;;;;5060656;28;20080;-90
2022/04/19 13:18:07;;;;;;;2.83;1.38;;;14.40;99.90;;;;;;5054212;28;20552;-87
2022/04/19 13:20:33;;;;;;;0.90;0.85;;;14.40;99.90;;;;;;5056204;28;20498;-86
2022/04/19 13:22:59;;;;;;;1.48;1.38;;;14.40;99.90;;;;;;5044971;28;20415;-84
2022/04/19 13:25:25;;;;;;;2.35;1.42;;;14.50;99.90;;;;;;5068687;28;20045;-84
2022/04/19 13:27:51;;;;;;;1.20;1.10;;;14.50;99.90;;;;;;5057808;28;20052;-85
2022/04/19 13:30:18;;;;;;;3.28;1.55;;;14.50;99.90;;;;;;5044926;28;20406;-84
2022/04/19 13:32:44;;;;;;;1.80;1.55;;;14.50;99.90;;;;;;5055632;28;20051;-86
2022/04/19 13:35:10;;;;;;;1.60;1.50;;;14.50;99.90;;;;;;5061506;28;20107;-85
2022/04/19 13:40:20;;;;;;;1.73;1.63;;;14.50;99.90;;;;;;5044522;28;20791;-86
2022/04/19 13:42:47;;;;;;;3.20;1.45;;;14.60;99.90;;;;;;5062777;28;20048;-85